Time;durP1;ratioP1;P1;durP2;ratioP2;P2;SDS_P1;SDS_P2;PMS_P1;PMS_P2;Temp;Humidity;BMP_temperature;BMP_pressure;BME280_temperature;BME280_humidity;BME280_pressure;Samples;Min_cycle;Max_cycle;Signal;HPM_P1;HPM_P2
2022/04/02 00:01:09;;;;;;;15.13;5.10;;;;;;;4.20;45.31;99141.06;5015433;28;20172;-79
2022/04/02 00:03:35;;;;;;;9.82;5.18;;;;;;;4.19;45.57;99147.94;5014533;28;20064;-78
2022/04/02 00:06:01;;;;;;;15.68;5.68;;;;;;;4.01;46.00;99122.53;5014430;28;20022;-79
2022/04/02 00:08:27;;;;;;;10.80;4.75;;;;;;;4.14;46.23;99136.53;5013082;28;20052;-78
2022/04/02 00:10:54;;;;;;;12.10;5.43;;;;;;;4.14;45.14;99142.97;5014516;28;20109;-78
2022/04/02 00:13:20;;;;;;;11.50;5.95;;;;;;;4.15;45.32;99138.88;4996732;28;20022;-79
2022/04/02 00:15:46;;;;;;;12.70;4.50;;;;;;;4.14;45.33;99136.53;5013090;28;20097;-79
2022/04/02 00:18:12;;;;;;;13.02;4.88;;;;;;;4.16;45.08;99145.28;5012767;28;20060;-80
2022/04/02 00:20:39;;;;;;;11.13;4.97;;;;;;;4.12;45.09;99144.66;5014220;28;20025;-79
2022/04/02 00:25:51;;;;;;;12.65;5.10;;;;;;;4.06;44.79;99136.03;5014472;28;20044;-80
2022/04/02 00:28:31;;;;;;;11.60;4.70;;;;;;;4.05;44.81;99140.06;5014449;28;20030;-80
2022/04/02 00:30:59;;;;;;;9.90;5.00;;;;;;;4.00;45.47;99125.81;5012481;28;20111;-81
2022/04/02 00:33:25;;;;;;;11.48;4.88;;;;;;;4.05;45.37;99128.81;5012999;28;20107;-78
2022/04/02 00:35:51;;;;;;;10.85;3.88;;;;;;;4.06;45.48;99132.41;5014438;28;20029;-79
2022/04/02 00:38:16;;;;;;;8.38;4.28;;;;;;;4.06;45.22;99138.03;5012817;28;20033;-80
2022/04/02 00:40:42;;;;;;;8.60;4.00;;;;;;;4.02;45.42;99134.59;5012757;28;20468;-79
2022/04/02 00:43:37;;;;;;;10.68;5.20;;;;;;;4.00;44.91;99125.81;5013754;28;20033;-80
2022/04/02 00:46:08;;;;;;;14.45;4.88;;;;;;;3.96;45.30;99125.97;5004846;28;20037;-78
2022/04/02 00:48:34;;;;;;;13.55;5.47;;;;;;;3.88;45.56;99108.56;5014165;28;20041;-80
2022/04/02 00:51:01;;;;;;;13.10;4.68;;;;;;;3.98;45.42;99125.50;5012673;28;20038;-78
2022/04/02 00:53:32;;;;;;;12.85;5.35;;;;;;;3.99;44.94;99130.69;4996835;28;20029;-78
2022/04/02 00:56:04;;;;;;;11.55;4.68;;;;;;;4.02;45.20;99131.78;5012462;28;20058;-78
2022/04/02 00:58:31;;;;;;;12.52;5.57;;;;;;;3.98;45.09;99126.28;4996514;28;20486;-80
2022/04/02 01:00:57;;;;;;;12.43;4.55;;;;;;;3.88;45.54;99119.84;4996139;28;20478;-78
2022/04/02 01:03:25;;;;;;;12.48;4.97;;;;;;;3.91;45.63;99129.38;5013700;28;20041;-78
2022/04/02 01:05:53;;;;;;;13.30;4.38;;;;;;;3.89;46.46;99134.72;5016217;28;20409;-79
2022/04/02 01:08:18;;;;;;;9.00;4.57;;;;;;;3.88;46.08;99141.59;4999481;28;20053;-78
2022/04/02 01:10:46;;;;;;;16.23;4.88;;;;;;;3.86;46.21;99135.63;5017399;28;20382;-79
2022/04/02 01:13:14;;;;;;;9.07;4.40;;;;;;;3.90;46.24;99141.88;5017627;28;20446;-78
2022/04/02 01:15:40;;;;;;;14.00;5.20;;;;;;;3.85;46.92;99142.50;5016117;28;20476;-79
2022/04/02 01:18:14;;;;;;;13.73;4.70;;;;;;;3.89;46.33;99143.94;5016045;28;20025;-78
2022/04/02 01:20:40;;;;;;;6.00;3.67;;;;;;;3.85;46.67;99137.66;5016133;28;20119;-78
2022/04/02 01:23:08;;;;;;;5.60;3.80;;;;;;;3.82;46.26;99137.78;5015997;28;20061;-79
2022/04/02 01:25:40;;;;;;;8.32;4.53;;;;;;;3.75;46.95;99138.09;5017311;28;20045;-79
2022/04/02 01:28:07;;;;;;;10.32;4.70;;;;;;;3.77;47.70;99144.03;5017519;28;20037;-79
2022/04/02 01:30:33;;;;;;;9.88;3.88;;;;;;;3.75;47.40;99150.09;5015170;28;20088;-80
2022/04/02 01:33:01;;;;;;;7.13;3.92;;;;;;;3.72;47.42;99148.22;4999673;28;20084;-81
2022/04/02 01:35:27;;;;;;;13.13;4.28;;;;;;;3.64;47.58;99146.94;5017024;28;20025;-79
2022/04/02 01:37:55;;;;;;;6.20;3.70;;;;;;;3.67;47.49;99154.44;5016759;28;20045;-79
2022/04/02 01:40:23;;;;;;;6.47;4.22;;;;;;;3.42;48.00;99120.84;5014830;28;20065;-80
2022/04/02 01:42:49;;;;;;;11.70;4.72;;;;;;;3.69;47.74;99156.81;5015459;28;20463;-79
2022/04/02 01:45:18;;;;;;;8.38;4.10;;;;;;;3.70;47.89;99161.97;5015466;28;20030;-78
2022/04/02 01:47:46;;;;;;;11.68;4.63;;;;;;;3.65;48.42;99156.16;4982864;28;20180;-78
2022/04/02 01:50:13;;;;;;;8.38;4.30;;;;;;;3.61;47.94;99152.69;5015462;28;20455;-78
2022/04/02 01:52:39;;;;;;;10.95;4.15;;;;;;;3.64;48.61;99160.22;4997939;28;20077;-79
2022/04/02 01:55:05;;;;;;;7.28;3.97;;;;;;;3.61;48.65;99159.09;5017170;28;20018;-78
2022/04/02 01:57:31;;;;;;;7.55;4.15;;;;;;;3.61;48.71;99155.50;5016644;28;20083;-79
2022/04/02 01:59:56;;;;;;;9.57;4.35;;;;;;;3.59;48.47;99158.78;5016638;28;20470;-79
2022/04/02 02:02:22;;;;;;;10.27;4.15;;;;;;;3.57;48.21;99154.84;5016404;28;20036;-79
2022/04/02 02:04:49;;;;;;;10.98;4.38;;;;;;;3.55;48.56;99163.00;5016529;28;20463;-78
2022/04/02 02:07:16;;;;;;;7.35;4.43;;;;;;;3.53;49.46;99157.81;5015599;28;20478;-77
2022/04/02 02:09:45;;;;;;;13.38;4.40;;;;;;;3.53;48.91;99160.63;5015780;28;20057;-78
2022/04/02 02:12:10;;;;;;;6.40;4.13;;;;;;;3.47;49.93;99151.19;5015069;28;20427;-79
2022/04/02 02:14:36;;;;;;;8.98;4.53;;;;;;;3.51;51.07;99162.31;5014515;28;20497;-80
2022/04/02 02:17:02;;;;;;;12.38;4.40;;;;;;;3.46;51.56;99158.84;5013761;28;20037;-80
2022/04/02 02:19:28;;;;;;;8.48;4.90;;;;;;;3.44;52.51;99166.19;5016082;28;20526;-80
2022/04/02 02:21:53;;;;;;;9.32;4.60;;;;;;;3.36;53.25;99176.13;5014948;28;20065;-80
2022/04/02 02:24:20;;;;;;;11.93;4.60;;;;;;;3.34;53.61;99182.22;5016127;28;20060;-78
2022/04/02 02:26:45;;;;;;;9.00;4.32;;;;;;;3.21;54.29;99177.88;5014659;28;20076;-80
2022/04/02 02:29:12;;;;;;;7.53;4.70;;;;;;;3.19;54.45;99186.00;5016242;28;20033;-79
2022/04/02 02:31:38;;;;;;;8.48;4.85;;;;;;;3.02;55.16;99172.13;5012533;28;20483;-79
2022/04/02 02:36:49;;;;;;;15.02;5.05;;;;;;;2.96;56.30;99190.03;5015904;28;20399;-79
2022/04/02 02:39:16;;;;;;;16.17;6.07;;;;;;;2.88;57.01;99183.88;5014599;28;20038;-79
2022/04/02 02:41:43;;;;;;;11.65;5.53;;;;;;;2.82;57.82;99180.06;5015898;28;20113;-79
2022/04/02 02:44:09;;;;;;;14.00;4.88;;;;;;;2.76;58.58;99186.72;5014462;28;20029;-80
2022/04/02 02:46:36;;;;;;;13.18;5.13;;;;;;;2.74;58.60;99201.22;5015418;28;20026;-81
2022/04/02 02:49:02;;;;;;;10.35;5.32;;;;;;;2.75;59.29;99202.00;5034118;28;20390;-79
2022/04/02 02:51:28;;;;;;;6.85;4.70;;;;;;;2.53;59.04;99171.81;5035358;28;20036;-79
2022/04/02 02:53:56;;;;;;;10.52;5.63;;;;;;;2.58;59.43;99184.50;5035424;28;20044;-79
2022/04/02 02:56:22;;;;;;;15.70;6.25;;;;;;;2.59;60.00;99209.34;5035405;28;20079;-78
2022/04/02 02:58:56;;;;;;;11.38;5.38;;;;;;;2.61;59.91;99208.91;5039149;28;20017;-80
2022/04/02 03:01:22;;;;;;;10.35;5.55;;;;;;;2.35;60.34;99174.41;5048512;28;20041;-79
2022/04/02 03:03:47;;;;;;;9.52;5.63;;;;;;;2.62;60.52;99213.25;5034170;28;20037;-79
2022/04/02 03:06:13;;;;;;;7.97;4.97;;;;;;;2.57;60.25;99216.63;5043888;28;20109;-78
2022/04/02 03:08:38;;;;;;;7.75;5.07;;;;;;;2.50;61.07;99211.28;5041037;28;20091;-78
2022/04/02 03:11:06;;;;;;;11.45;6.47;;;;;;;2.49;61.36;99213.28;5038232;28;20034;-78
2022/04/02 03:13:31;;;;;;;9.90;5.38;;;;;;;2.44;61.46;99205.44;5042958;28;20029;-80
2022/04/02 03:15:57;;;;;;;11.48;5.00;;;;;;;2.48;61.10;99208.13;5040571;28;20099;-79
2022/04/02 03:18:22;;;;;;;12.32;5.68;;;;;;;2.46;61.67;99217.00;5034034;28;20025;-80
2022/04/02 03:20:53;;;;;;;9.80;5.57;;;;;;;2.42;61.39;99205.06;5034078;28;20116;-78
2022/04/02 03:23:20;;;;;;;8.73;5.03;;;;;;;2.45;60.93;99218.25;5034219;28;20360;-78
2022/04/02 03:25:45;;;;;;;9.38;5.07;;;;;;;2.32;61.54;99202.63;5033649;28;20394;-78
2022/04/02 03:28:12;;;;;;;12.68;4.93;;;;;;;2.49;60.60;99215.31;5034205;28;20021;-80
2022/04/02 03:30:38;;;;;;;7.72;5.47;;;;;;;2.41;61.01;99228.81;5034558;28;20045;-80
2022/04/02 03:33:09;;;;;;;10.38;5.18;;;;;;;2.24;61.58;99206.91;5034770;28;20370;-80
2022/04/02 03:35:34;;;;;;;6.20;4.53;;;;;;;2.36;61.41;99234.22;5034856;28;20083;-78
2022/04/02 03:38:01;;;;;;;15.65;5.90;;;;;;;2.28;61.54;99218.81;5033694;28;20033;-78
2022/04/02 03:40:32;;;;;;;10.50;5.43;;;;;;;2.27;61.90;99237.66;5033768;28;20021;-78
2022/04/02 03:42:58;;;;;;;11.27;6.00;;;;;;;2.27;62.28;99236.91;5033613;28;20072;-79
2022/04/02 03:45:23;;;;;;;9.93;5.88;;;;;;;2.24;62.81;99232.16;5034446;28;20064;-78
2022/04/02 03:47:50;;;;;;;11.43;5.68;;;;;;;2.28;62.43;99242.06;5034160;28;20040;-79
2022/04/02 03:50:17;;;;;;;13.80;6.45;;;;;;;2.28;63.01;99242.06;5000545;28;20033;-78
2022/04/02 03:52:44;;;;;;;13.82;6.20;;;;;;;2.25;63.35;99237.34;5034399;28;20382;-80
2022/04/02 03:55:11;;;;;;;13.43;6.10;;;;;;;2.20;64.43;99237.91;5000287;28;20617;-79
2022/04/02 03:57:39;;;;;;;9.85;5.90;;;;;;;2.13;64.74;99233.28;5034383;28;20029;-79
2022/04/02 04:00:06;;;;;;;11.38;6.60;;;;;;;2.16;65.12;99243.66;5033232;28;20039;-78
2022/04/02 04:02:37;;;;;;;11.98;6.40;;;;;;;2.04;65.83;99238.78;5032951;28;20069;-78
2022/04/02 04:05:06;;;;;;;11.88;6.60;;;;;;;2.04;66.18;99250.03;5016946;28;20033;-79
2022/04/02 04:07:32;;;;;;;14.95;7.05;;;;;;;2.01;66.79;99253.72;5000313;28;20124;-78
2022/04/02 04:09:57;;;;;;;11.73;6.70;;;;;;;1.97;67.28;99253.06;5034070;28;20076;-79
2022/04/02 04:12:25;;;;;;;12.52;7.35;;;;;;;1.88;68.02;99252.13;5033980;28;20072;-79
2022/04/02 04:14:52;;;;;;;14.23;7.85;;;;;;;1.86;68.56;99249.78;5015637;28;20037;-77
2022/04/02 04:17:18;;;;;;;12.70;7.80;;;;;;;1.83;69.12;99247.03;5032898;28;20029;-77
2022/04/02 04:19:45;;;;;;;10.10;6.35;;;;;;;1.81;69.23;99257.94;5032771;28;20073;-78
2022/04/02 04:22:11;;;;;;;13.70;7.63;;;;;;;1.78;69.45;99256.81;5034589;28;20108;-78
2022/04/02 04:24:38;;;;;;;13.25;8.85;;;;;;;1.75;70.34;99254.91;5033652;28;20080;-77
2022/04/02 04:27:07;;;;;;;16.02;8.38;;;;;;;1.72;70.31;99261.41;5016637;28;20029;-78
2022/04/02 04:29:32;;;;;;;19.23;7.88;;;;;;;1.66;70.58;99263.97;5032900;28;20068;-78
2022/04/02 04:32:00;;;;;;;18.00;8.60;;;;;;;1.58;71.39;99262.59;5034031;28;20030;-78
2022/04/02 04:34:26;;;;;;;12.88;7.65;;;;;;;1.56;71.17;99259.47;5032639;28;20083;-78
2022/04/02 04:36:52;;;;;;;14.43;8.43;;;;;;;1.54;71.39;99261.91;5032588;28;20025;-78
2022/04/02 04:39:19;;;;;;;11.23;7.35;;;;;;;1.50;71.32;99272.44;5015841;28;20486;-79
2022/04/02 04:41:44;;;;;;;15.55;8.15;;;;;;;1.49;71.78;99268.06;5015914;28;20120;-78
2022/04/02 04:44:11;;;;;;;10.82;6.68;;;;;;;1.52;71.69;99284.03;5033590;28;20037;-80
2022/04/02 04:46:39;;;;;;;15.07;7.55;;;;;;;1.45;71.85;99272.19;5032572;28;20030;-78
2022/04/02 04:49:08;;;;;;;11.43;7.00;;;;;;;1.47;72.15;99273.34;5034153;28;20021;-78
2022/04/02 04:51:35;;;;;;;14.52;6.57;;;;;;;1.43;71.50;99281.03;5032714;28;20083;-79
2022/04/02 04:54:05;;;;;;;13.27;7.55;;;;;;;1.34;72.40;99263.28;5033625;28;20429;-79
2022/04/02 04:56:34;;;;;;;15.80;7.60;;;;;;;1.39;72.44;99280.34;5033522;28;20029;-77
2022/04/02 04:59:00;;;;;;;14.63;7.10;;;;;;;1.35;72.21;99281.69;5016002;28;20466;-77
2022/04/02 05:01:25;;;;;;;14.70;7.40;;;;;;;1.30;72.57;99272.59;5033898;28;20098;-77
2022/04/02 05:03:52;;;;;;;14.85;7.65;;;;;;;1.36;72.42;99286.06;5032186;28;20049;-79
2022/04/02 05:06:19;;;;;;;11.50;7.97;;;;;;;1.37;72.28;99277.22;5033811;28;20108;-79
2022/04/02 05:08:45;;;;;;;15.30;6.93;;;;;;;1.42;71.62;99285.09;5032499;28;20049;-78
2022/04/02 05:11:12;;;;;;;13.48;7.50;;;;;;;1.37;71.85;99276.44;5016343;28;20410;-79
2022/04/02 05:13:40;;;;;;;16.25;8.02;;;;;;;1.45;71.41;99281.41;5038286;28;20042;-77
2022/04/02 05:16:08;;;;;;;19.13;8.15;;;;;;;1.45;71.90;99283.41;5032611;28;20034;-78
2022/04/02 05:18:34;;;;;;;13.95;7.20;;;;;;;1.43;71.63;99272.63;5049589;28;20041;-78
2022/04/02 05:21:02;;;;;;;11.13;6.78;;;;;;;1.48;72.23;99288.16;5046161;28;20067;-78
2022/04/02 05:23:28;;;;;;;22.25;7.75;;;;;;;1.52;72.23;99288.84;5044499;28;20033;-79
2022/04/02 05:25:53;;;;;;;14.65;8.05;;;;;;;1.55;71.89;99283.13;5043100;28;20032;-78
2022/04/02 05:28:18;;;;;;;18.65;8.10;;;;;;;1.57;72.29;99277.88;5040806;28;20037;-78
2022/04/02 05:30:45;;;;;;;12.20;7.65;;;;;;;1.61;71.55;99284.16;5047873;28;20030;-78
2022/04/02 05:33:11;;;;;;;14.48;7.50;;;;;;;1.73;70.84;99285.41;5047854;28;20108;-78
2022/04/02 05:35:38;;;;;;;11.73;7.80;;;;;;;1.72;70.89;99287.47;5034813;28;20096;-77
2022/04/02 05:38:03;;;;;;;18.88;8.35;;;;;;;1.73;71.28;99291.81;5033417;28;20053;-78
2022/04/02 05:40:30;;;;;;;13.88;7.45;;;;;;;1.76;70.74;99287.34;5016559;28;20536;-78
2022/04/02 05:42:57;;;;;;;15.73;6.72;;;;;;;1.70;69.96;99267.47;5031722;28;20025;-77
2022/04/02 05:45:24;;;;;;;13.75;7.30;;;;;;;1.85;70.02;99283.91;5033046;28;20048;-77
2022/04/02 05:47:55;;;;;;;15.73;7.53;;;;;;;1.91;69.49;99284.94;5031865;28;20033;-78
2022/04/02 05:50:24;;;;;;;15.32;7.07;;;;;;;1.97;69.46;99292.38;4999191;28;20060;-77
2022/04/02 05:52:50;;;;;;;15.85;6.72;;;;;;;1.98;68.32;99295.94;5037390;28;20087;-77
2022/04/02 05:55:15;;;;;;;15.63;6.93;;;;;;;2.02;68.86;99302.25;5021020;28;20021;-77
2022/04/02 05:57:42;;;;;;;21.55;7.38;;;;;;;2.06;67.08;99302.94;5037004;28;20103;-77
2022/04/02 06:00:10;;;;;;;10.32;6.15;;;;;;;2.07;66.74;99305.28;5027105;28;20045;-77
2022/04/02 06:02:37;;;;;;;14.10;6.85;;;;;;;2.10;67.06;99309.22;5039360;28;20533;-77
2022/04/02 06:05:08;;;;;;;10.35;5.93;;;;;;;2.12;66.18;99315.19;5037824;28;20063;-77
2022/04/02 06:07:34;;;;;;;16.27;6.43;;;;;;;2.10;66.31;99307.22;5025495;28;20505;-77
2022/04/02 06:10:03;;;;;;;10.77;6.15;;;;;;;2.20;66.16;99313.75;5038695;28;20084;-77
2022/04/02 06:12:36;;;;;;;14.98;6.40;;;;;;;2.31;65.51;99321.84;5037372;28;20033;-77
2022/04/02 06:15:03;;;;;;;12.82;5.68;;;;;;;2.37;64.61;99303.97;5034816;28;20033;-79
2022/04/02 06:17:28;;;;;;;14.55;6.07;;;;;;;2.44;63.86;99317.81;5036223;28;20029;-77
2022/04/02 06:19:53;;;;;;;10.23;5.32;;;;;;;2.54;64.10;99310.28;5018422;28;20033;-77
2022/04/02 06:22:21;;;;;;;12.63;6.07;;;;;;;2.66;63.28;99319.97;5035094;28;20025;-79
2022/04/02 06:24:49;;;;;;;17.65;7.13;;;;;;;2.76;63.04;99324.47;5034829;28;20115;-77
2022/04/02 06:27:16;;;;;;;13.38;6.38;;;;;;;2.91;60.68;99325.59;5035146;28;20037;-77
2022/04/02 06:29:42;;;;;;;14.25;5.97;;;;;;;2.97;60.21;99326.56;5018461;28;20029;-79
2022/04/02 06:32:08;;;;;;;17.60;7.10;;;;;;;3.03;60.39;99319.94;5018255;28;20029;-78
2022/04/02 06:34:34;;;;;;;13.90;6.20;;;;;;;3.14;59.45;99313.19;5018571;28;20029;-80
2022/04/02 06:37:02;;;;;;;9.60;5.78;;;;;;;3.16;59.20;99311.47;5035933;28;20044;-78
2022/04/02 06:39:29;;;;;;;12.38;7.78;;;;;;;3.31;59.66;99320.22;5035748;28;20017;-78
2022/04/02 06:41:55;;;;;;;9.25;5.78;;;;;;;3.28;59.34;99324.75;5035933;28;20096;-78
2022/04/02 06:44:21;;;;;;;10.70;5.63;;;;;;;3.21;59.26;99329.81;5036122;28;20033;-81
2022/04/02 06:46:46;;;;;;;12.00;5.78;;;;;;;3.16;58.91;99316.34;5035955;28;20092;-80
2022/04/02 06:49:12;;;;;;;10.30;4.78;;;;;;;3.20;58.95;99317.78;5035696;28;20033;-81
2022/04/02 06:51:37;;;;;;;11.70;5.32;;;;;;;3.33;56.81;99326.19;5017680;28;20429;-78
2022/04/02 06:54:14;;;;;;;9.57;5.35;;;;;;;3.39;56.34;99327.19;5000906;28;20041;-81
2022/04/02 06:56:40;;;;;;;9.55;5.28;;;;;;;3.43;56.08;99325.81;5017635;28;20120;-78
2022/04/02 06:59:07;;;;;;;9.77;5.13;;;;;;;3.42;55.32;99335.50;5034720;28;20529;-79
2022/04/02 07:01:33;;;;;;;9.85;5.50;;;;;;;3.42;55.45;99327.06;5033873;28;20033;-79
2022/04/02 07:04:01;;;;;;;13.68;5.45;;;;;;;3.50;54.67;99329.66;5033870;28;20029;-79
2022/04/02 07:06:26;;;;;;;5.82;4.05;;;;;;;3.55;53.06;99324.22;5033948;28;20059;-78
2022/04/02 07:08:51;;;;;;;8.77;5.28;;;;;;;3.48;52.37;99311.19;5034989;28;20041;-78
2022/04/02 07:11:16;;;;;;;8.93;4.85;;;;;;;3.50;51.57;99329.66;5018087;28;20025;-77
2022/04/02 07:13:43;;;;;;;7.35;4.45;;;;;;;3.48;51.66;99338.53;5037894;28;20021;-76
2022/04/02 07:16:16;;;;;;;9.43;4.75;;;;;;;3.47;51.26;99337.75;5034833;28;20033;-80
2022/04/02 07:18:46;;;;;;;10.90;4.55;;;;;;;3.51;51.40;99342.47;5035347;28;20029;-77
2022/04/02 07:21:14;;;;;;;10.20;5.47;;;;;;;3.60;51.60;99339.75;5034058;28;20071;-77
2022/04/02 07:23:44;;;;;;;7.45;4.28;;;;;;;3.73;51.80;99341.28;5019563;28;20509;-78
2022/04/02 07:26:10;;;;;;;11.23;5.40;;;;;;;3.95;50.13;99335.63;5034122;28;20037;-78
2022/04/02 07:28:36;;;;;;;8.23;4.82;;;;;;;3.98;49.99;99336.78;5053889;28;20036;-81
2022/04/02 07:31:03;;;;;;;9.20;4.40;;;;;;;3.97;50.40;99338.00;5049507;28;20026;-78
2022/04/02 07:33:30;;;;;;;10.60;5.28;;;;;;;4.08;49.69;99341.22;5039028;28;20028;-79
2022/04/02 07:36:08;;;;;;;6.60;4.28;;;;;;;4.34;49.29;99357.53;5053740;28;20021;-80
2022/04/02 07:39:16;;;;;;;6.22;3.92;;;;;;;4.39;49.49;99341.28;5054959;28;20109;-79
2022/04/02 07:42:02;;;;;;;9.10;4.32;;;;;;;4.63;49.70;99342.34;5040540;28;20479;-80
2022/04/02 07:44:41;;;;;;;7.15;4.78;;;;;;;5.00;48.88;99343.28;5035481;28;20024;-79
2022/04/02 07:47:08;;;;;;;10.95;4.32;;;;;;;5.29;47.17;99345.72;5033750;28;20033;-78
2022/04/02 07:49:37;;;;;;;9.13;4.07;;;;;;;5.45;47.05;99349.06;5034091;28;20034;-81
2022/04/02 07:52:03;;;;;;;9.38;4.15;;;;;;;5.60;46.45;99350.03;5016968;28;20115;-85
2022/04/02 07:54:32;;;;;;;6.10;4.30;;;;;;;5.74;45.12;99348.63;5017372;28;20033;-84
2022/04/02 07:57:03;;;;;;;6.72;5.00;;;;;;;5.66;46.34;99347.38;5032471;28;20037;-86
2022/04/02 07:59:34;;;;;;;11.52;3.83;;;;;;;5.75;45.34;99349.41;5035539;28;20103;-83
2022/04/02 08:02:01;;;;;;;13.13;4.30;;;;;;;5.73;45.37;99360.38;5032682;28;20032;-80
2022/04/02 08:04:35;;;;;;;6.25;3.55;;;;;;;5.68;44.60;99355.38;5033150;28;20119;-81
2022/04/02 08:07:00;;;;;;;8.02;4.00;;;;;;;5.59;44.35;99364.63;5049925;28;20119;-82
2022/04/02 08:09:27;;;;;;;7.68;4.40;;;;;;;5.43;45.39;99350.78;5033207;28;20064;-79
2022/04/02 08:11:53;;;;;;;7.90;4.05;;;;;;;5.45;46.79;99359.56;5032919;28;20390;-81
2022/04/02 08:14:21;;;;;;;8.02;4.22;;;;;;;5.72;47.09;99356.81;5032477;28;20143;-83
2022/04/02 08:16:48;;;;;;;6.40;4.25;;;;;;;6.05;45.57;99362.66;5032862;28;20040;-79
2022/04/02 08:19:14;;;;;;;6.63;4.28;;;;;;;6.17;45.43;99363.75;5033577;28;20099;-81
2022/04/02 08:21:39;;;;;;;10.50;4.13;;;;;;;6.42;44.69;99364.16;5032983;28;20458;-83
2022/04/02 08:24:06;;;;;;;7.78;3.50;;;;;;;6.43;44.02;99359.31;5034467;28;20103;-81
2022/04/02 08:26:47;;;;;;;5.25;3.75;;;;;;;6.50;42.83;99359.78;5035128;28;20450;-81
2022/04/02 08:29:51;;;;;;;7.30;4.20;;;;;;;6.77;43.03;99361.72;5034320;28;20033;-84
2022/04/02 08:32:28;;;;;;;7.95;3.65;;;;;;;7.25;41.77;99364.72;5015255;28;20764;-78
2022/04/02 08:35:13;;;;;;;7.78;4.55;;;;;;;7.63;41.82;99373.31;5033524;28;20033;-84
2022/04/02 08:37:56;;;;;;;7.60;3.83;;;;;;;8.10;40.42;99360.34;5035519;28;20029;-81
2022/04/02 08:40:46;;;;;;;7.03;4.05;;;;;;;8.41;39.98;99352.22;5017598;28;20025;-83
2022/04/02 08:43:18;;;;;;;9.10;4.18;;;;;;;8.80;38.77;99364.25;5006944;28;20045;-79
2022/04/02 08:46:16;;;;;;;10.48;4.35;;;;;;;9.08;37.89;99356.19;5039897;28;20033;-78
2022/04/02 08:49:08;;;;;;;9.13;4.47;;;;;;;9.25;37.07;99359.31;5039081;28;20041;-77
2022/04/02 08:52:05;;;;;;;9.02;3.83;;;;;;;9.46;37.46;99364.56;5037221;28;20486;-76
2022/04/02 08:54:57;;;;;;;9.75;4.18;;;;;;;9.56;35.60;99359.53;5041049;28;20423;-78
2022/04/02 08:57:26;;;;;;;7.95;4.00;;;;;;;9.74;37.45;99361.31;5032565;28;20550;-77
2022/04/02 09:00:07;;;;;;;9.30;4.43;;;;;;;10.16;36.91;99361.59;5037401;28;20124;-76
2022/04/02 09:03:09;;;;;;;5.13;4.15;;;;;;;10.58;35.58;99358.19;5037719;28;20116;-77
2022/04/02 09:06:09;;;;;;;7.50;3.88;;;;;;;10.88;34.75;99361.59;4994455;28;20392;-78
2022/04/02 09:08:50;;;;;;;10.40;4.45;;;;;;;10.89;34.66;99371.69;5038301;28;20076;-77
2022/04/02 09:11:31;;;;;;;12.87;3.87;;;;;;;10.80;35.01;99377.56;5039767;28;20418;-75
2022/04/02 09:14:18;;;;;;;4.72;3.47;;;;;;;10.69;33.55;99371.75;5039280;28;20072;-81
2022/04/02 09:17:08;;;;;;;11.77;4.05;;;;;;;10.00;34.72;99376.41;5033489;28;20490;-80
2022/04/02 09:19:52;;;;;;;7.07;3.75;;;;;;;9.74;36.48;99378.38;5033636;28;20056;-80
2022/04/02 09:22:35;;;;;;;6.95;4.22;;;;;;;9.71;36.19;99376.53;5034002;28;20017;-79
2022/04/02 09:25:35;;;;;;;76.00;5.88;;;;;;;9.81;36.76;99381.59;5035527;28;20079;-80
2022/04/02 09:28:30;;;;;;;10.05;3.70;;;;;;;9.91;36.27;99363.09;5054280;28;20084;-83
2022/04/02 09:31:41;;;;;;;6.35;3.83;;;;;;;10.04;34.63;99370.47;5053201;28;20029;-81
2022/04/02 09:34:29;;;;;;;8.27;4.13;;;;;;;9.90;35.07;99381.44;5055833;28;20029;-81
2022/04/02 09:37:19;;;;;;;8.80;3.95;;;;;;;9.79;34.76;99380.50;5054571;28;20143;-80
2022/04/02 09:40:09;;;;;;;10.52;3.63;;;;;;;9.64;36.38;99380.56;5014372;28;20041;-83
2022/04/02 09:42:45;;;;;;;7.57;3.55;;;;;;;9.94;35.53;99381.22;5049486;28;20040;-80
2022/04/02 09:45:16;;;;;;;6.75;4.10;;;;;;;10.13;35.10;99373.19;5044794;28;20057;-81
2022/04/02 09:47:54;;;;;;;;;;;;;;;10.37;35.61;99379.44;5040950;28;20075;-80
2022/04/02 09:50:23;;;;;;;10.57;4.20;;;;;;;10.46;34.92;99372.81;5042727;28;19920;-80
2022/04/02 09:52:56;;;;;;;10.80;4.53;;;;;;;10.56;34.10;99372.13;5024229;28;20029;-80
2022/04/02 09:55:57;;;;;;;5.13;3.40;;;;;;;10.86;33.22;99381.22;5041249;28;20025;-79
2022/04/02 09:58:45;;;;;;;5.50;4.07;;;;;;;10.76;33.36;99377.00;5044340;28;20524;-80
2022/04/02 10:01:27;;;;;;;8.55;4.18;;;;;;;10.39;33.69;99380.53;5042778;28;20040;-84
2022/04/02 10:04:26;;;;;;;7.40;4.13;;;;;;;10.13;34.84;99381.72;5036396;28;20475;-84
2022/04/02 10:06:56;;;;;;;11.52;4.85;;;;;;;9.96;35.49;99381.53;5033811;28;20082;-84
2022/04/02 10:09:23;;;;;;;9.00;4.55;;;;;;;9.84;35.99;99380.59;5007937;28;20058;-83
2022/04/02 10:12:09;;;;;;;6.65;4.65;;;;;;;9.64;36.08;99388.31;5044564;28;20440;-80
2022/04/02 10:14:39;;;;;;;8.55;4.43;;;;;;;9.60;35.59;99370.69;5023678;28;20030;-82
2022/04/02 10:17:07;;;;;;;9.65;5.30;;;;;;;9.36;36.50;99383.00;5019520;28;20026;-81
2022/04/02 10:19:40;;;;;;;7.65;4.63;;;;;;;9.43;36.05;99384.63;5034537;28;20103;-79
2022/04/02 10:22:09;;;;;;;13.93;4.82;;;;;;;9.12;36.45;99387.25;5001944;28;20035;-80
2022/04/02 10:24:56;;;;;;;10.57;4.93;;;;;;;8.78;37.35;99389.50;5034602;28;20108;-80
2022/04/02 10:27:31;;;;;;;11.75;4.40;;;;;;;8.60;38.25;99392.53;5016396;28;20390;-77
2022/04/02 10:29:59;;;;;;;9.18;5.25;;;;;;;8.48;38.89;99393.63;5034499;28;20099;-81
2022/04/02 10:32:52;;;;;;;11.65;4.95;;;;;;;8.67;37.99;99395.00;5035158;28;20033;-80
2022/04/02 10:35:18;;;;;;;11.02;5.00;;;;;;;8.68;38.57;99388.81;5028212;28;20025;-83
2022/04/02 10:37:53;;;;;;;9.80;5.57;;;;;;;8.92;38.35;99391.59;5023889;28;20041;-83
2022/04/02 10:40:24;;;;;;;7.53;4.65;;;;;;;9.34;37.93;99388.38;5022026;28;20025;-80
2022/04/02 10:42:52;;;;;;;8.68;4.47;;;;;;;9.91;36.37;99370.84;5026271;28;20127;-81
2022/04/02 10:45:20;;;;;;;7.55;4.28;;;;;;;10.11;34.81;99382.22;5015292;28;20029;-83
2022/04/02 10:47:49;;;;;;;7.07;4.45;;;;;;;9.93;35.96;99379.66;5019664;28;20560;-82
2022/04/02 10:50:19;;;;;;;7.53;4.70;;;;;;;9.78;36.24;99370.41;5042101;28;20437;-80
2022/04/02 10:53:00;;;;;;;6.43;5.18;;;;;;;9.86;36.34;99378.03;5031006;28;20603;-82
2022/04/02 10:55:28;;;;;;;6.03;4.50;;;;;;;9.87;35.82;99384.47;5052553;28;20025;-82
2022/04/02 10:57:59;;;;;;;6.97;4.63;;;;;;;9.68;35.81;99388.88;5013825;28;20284;-80
2022/04/02 11:00:33;;;;;;;8.30;4.43;;;;;;;9.74;35.49;99378.38;5041685;28;20048;-80
2022/04/02 11:03:04;;;;;;;9.43;4.57;;;;;;;9.65;36.83;99378.50;5023395;28;20025;-80
2022/04/02 11:05:38;;;;;;;9.68;4.90;;;;;;;9.61;37.40;99367.34;5025731;28;20029;-80
2022/04/02 11:08:11;;;;;;;10.82;5.10;;;;;;;9.77;36.60;99372.47;5039234;28;20106;-80
2022/04/02 11:10:38;;;;;;;5.90;3.92;;;;;;;9.98;35.56;99373.25;5040208;28;20055;-79
2022/04/02 11:13:09;;;;;;;9.68;5.03;;;;;;;9.90;36.78;99374.97;5005522;28;20463;-79
2022/04/02 11:15:41;;;;;;;11.88;5.22;;;;;;;10.04;35.64;99361.94;5037203;28;20040;-79
2022/04/02 11:18:17;;;;;;;10.05;5.47;;;;;;;10.02;36.26;99370.97;5037837;28;20017;-82
2022/04/02 11:20:47;;;;;;;10.57;5.20;;;;;;;10.10;36.75;99363.59;5020214;28;20036;-79
2022/04/02 11:23:14;;;;;;;10.70;5.35;;;;;;;10.38;36.86;99366.78;5035069;28;20029;-82
2022/04/02 11:25:56;;;;;;;13.55;7.18;;;;;;;10.71;36.24;99369.97;5035217;28;20478;-80
2022/04/02 11:28:22;;;;;;;;;;;;;;;10.86;34.62;99360.50;5018211;28;20061;-78
2022/04/02 11:31:03;;;;;;;16.13;5.22;;;;;;;11.31;35.00;99359.59;5034342;28;19920;-78
2022/04/02 11:33:32;;;;;;;10.88;5.53;;;;;;;11.65;33.47;99357.72;5035233;28;20021;-77
2022/04/02 11:36:14;;;;;;;10.52;5.10;;;;;;;11.66;32.19;99353.59;5034312;28;20021;-78
2022/04/02 11:38:53;;;;;;;13.50;4.70;;;;;;;11.34;33.73;99366.38;5034189;28;20021;-80
2022/04/02 11:41:52;;;;;;;11.27;5.15;;;;;;;11.22;34.36;99354.88;5034833;28;20026;-77
2022/04/02 11:44:18;;;;;;;10.50;4.90;;;;;;;11.25;33.44;99359.53;5001627;28;20033;-77
2022/04/02 11:47:02;;;;;;;12.13;5.30;;;;;;;11.37;33.43;99362.47;5033769;28;20071;-78
2022/04/02 11:49:36;;;;;;;10.35;5.05;;;;;;;11.58;32.89;99359.00;5020204;28;20028;-76
2022/04/02 11:52:03;;;;;;;10.68;5.25;;;;;;;11.68;32.86;99348.97;5025846;28;20018;-81
2022/04/02 11:54:30;;;;;;;13.18;5.75;;;;;;;11.72;32.64;99368.69;5052341;28;20100;-80
2022/04/02 11:57:12;;;;;;;14.88;4.72;;;;;;;11.64;32.20;99362.66;5049555;28;20057;-78
2022/04/02 11:59:50;;;;;;;14.52;5.20;;;;;;;11.72;32.00;99359.34;5021533;28;20111;-78